Time;durP1;ratioP1;P1;durP2;ratioP2;P2;SDS_P1;SDS_P2;PMS_P1;PMS_P2;Temp;Humidity;BMP_temperature;BMP_pressure;BME280_temperature;BME280_humidity;BME280_pressure;Samples;Min_cycle;Max_cycle;Signal;HPM_P1;HPM_P2
2022/10/05 00:00:43;;;;;;;8.52;5.80;;;15.30;99.90;;;;;;5134398;27;20035;-52
2022/10/05 00:03:10;;;;;;;9.35;6.45;;;15.30;99.90;;;;;;5132196;27;20506;-53
2022/10/05 00:05:36;;;;;;;10.15;6.68;;;15.30;99.90;;;;;;5130575;27;20055;-52
2022/10/05 00:08:28;;;;;;;7.60;5.97;;;15.20;99.90;;;;;;5129251;27;20507;-53
2022/10/05 00:10:54;;;;;;;11.07;6.93;;;15.20;99.90;;;;;;5121896;27;20100;-53
2022/10/05 00:13:25;;;;;;;9.07;6.93;;;15.20;99.90;;;;;;5116413;27;20032;-52
2022/10/05 00:16:17;;;;;;;10.32;6.55;;;15.30;99.90;;;;;;5109945;27;20043;-52
2022/10/05 00:18:46;;;;;;;10.25;5.82;;;15.30;99.90;;;;;;5115795;27;20082;-54
2022/10/05 00:21:24;;;;;;;8.45;6.00;;;15.30;99.90;;;;;;5145625;27;20031;-52
2022/10/05 00:23:50;;;;;;;5.97;5.40;;;15.20;99.90;;;;;;5111520;27;20091;-52
2022/10/05 00:26:22;;;;;;;7.10;5.97;;;15.30;99.90;;;;;;5126081;27;20034;-53
2022/10/05 00:28:48;;;;;;;6.70;5.32;;;15.20;99.90;;;;;;5118699;27;20047;-52
2022/10/05 00:31:21;;;;;;;10.07;5.50;;;15.30;99.90;;;;;;5135332;27;20391;-52
2022/10/05 00:33:47;;;;;;;7.00;5.43;;;15.30;99.90;;;;;;5123007;27;20444;-53
2022/10/05 00:36:13;;;;;;;7.63;6.07;;;15.30;99.90;;;;;;5134248;27;20453;-53
2022/10/05 00:38:39;;;;;;;12.05;6.32;;;15.30;99.90;;;;;;5140137;27;20095;-52
2022/10/05 00:41:20;;;;;;;8.07;5.97;;;15.20;99.90;;;;;;5133356;27;20042;-53
2022/10/05 00:44:05;;;;;;;10.38;7.13;;;15.30;99.90;;;;;;5120629;27;20043;-52
2022/10/05 00:46:42;;;;;;;13.85;7.50;;;15.30;99.90;;;;;;5127859;27;20037;-53
2022/10/05 00:49:26;;;;;;;8.20;6.63;;;15.20;99.90;;;;;;5136664;27;20039;-52
2022/10/05 00:52:19;;;;;;;9.60;6.82;;;15.20;99.90;;;;;;5138574;27;20079;-51
2022/10/05 00:55:26;;;;;;;11.07;7.07;;;15.20;99.90;;;;;;5126561;27;20036;-54
2022/10/05 00:58:28;;;;;;;11.88;8.80;;;15.20;99.90;;;;;;5116221;27;20213;-52
2022/10/05 01:01:03;;;;;;;10.00;7.47;;;15.20;99.90;;;;;;5119648;27;20388;-51
2022/10/05 01:03:57;;;;;;;11.43;7.75;;;15.20;99.90;;;;;;5141672;27;20042;-52
2022/10/05 01:06:40;;;;;;;13.43;8.10;;;15.20;99.90;;;;;;5129284;27;20508;-52
2022/10/05 01:09:24;;;;;;;18.33;8.80;;;15.10;99.90;;;;;;5121998;27;20059;-53
2022/10/05 01:12:26;;;;;;;14.35;9.05;;;15.10;99.90;;;;;;5117434;27;20102;-52
2022/10/05 01:15:05;;;;;;;12.48;8.48;;;15.20;99.90;;;;;;5131844;27;20048;-53
2022/10/05 01:17:45;;;;;;;13.63;8.15;;;15.10;99.90;;;;;;5122882;27;20043;-52
2022/10/05 01:20:29;;;;;;;11.68;8.10;;;15.10;99.90;;;;;;5125869;27;20500;-52
2022/10/05 01:23:12;;;;;;;23.50;8.57;;;15.10;99.90;;;;;;5143540;27;20091;-52
2022/10/05 01:26:04;;;;;;;15.60;9.77;;;15.10;99.90;;;;;;5118370;27;20067;-52
2022/10/05 01:28:45;;;;;;;15.30;7.75;;;15.10;99.90;;;;;;5140421;27;20031;-54
2022/10/05 01:31:37;;;;;;;14.30;8.05;;;15.10;99.90;;;;;;5134745;27;20091;-54
2022/10/05 01:34:32;;;;;;;10.73;8.07;;;15.10;99.90;;;;;;5132368;27;20066;-52
2022/10/05 01:37:17;;;;;;;12.57;8.73;;;15.10;99.90;;;;;;5133391;27;20134;-51
2022/10/05 01:40:04;;;;;;;13.50;9.40;;;15.10;99.90;;;;;;5125683;27;20054;-52
2022/10/05 01:42:51;;;;;;;13.90;8.25;;;15.10;99.90;;;;;;5139570;27;20058;-52
2022/10/05 01:45:23;;;;;;;11.25;9.07;;;15.10;99.90;;;;;;5124466;27;20066;-53
2022/10/05 01:48:06;;;;;;;10.02;8.93;;;15.00;99.90;;;;;;5133322;27;20133;-53
2022/10/05 01:51:02;;;;;;;10.18;8.50;;;15.00;99.90;;;;;;5152171;27;20070;-52
2022/10/05 01:53:46;;;;;;;11.45;7.80;;;15.00;99.90;;;;;;5140122;27;20039;-52
2022/10/05 01:56:21;;;;;;;11.43;8.43;;;15.00;99.90;;;;;;5122463;27;20055;-54
2022/10/05 01:59:15;;;;;;;11.70;8.88;;;15.00;99.90;;;;;;5142968;27;20047;-52
2022/10/05 02:02:06;;;;;;;8.80;7.55;;;15.00;99.90;;;;;;5129245;27;20063;-53
2022/10/05 02:05:12;;;;;;;9.35;7.25;;;15.00;99.90;;;;;;5133980;27;20053;-53
2022/10/05 02:07:45;;;;;;;18.05;9.02;;;15.00;99.90;;;;;;5133551;27;20043;-55
2022/10/05 02:10:20;;;;;;;13.73;7.28;;;15.00;99.90;;;;;;5153072;27;20077;-52
2022/10/05 02:12:50;;;;;;;12.27;7.97;;;15.00;99.90;;;;;;5123350;27;20462;-52
2022/10/05 02:15:24;;;;;;;10.45;8.40;;;15.00;99.90;;;;;;5146577;27;20035;-52
2022/10/05 02:17:56;;;;;;;10.13;7.85;;;14.90;99.90;;;;;;5128433;27;20030;-52
2022/10/05 02:20:26;;;;;;;10.07;7.30;;;14.90;99.90;;;;;;5153237;27;20041;-54
2022/10/05 02:22:57;;;;;;;8.70;7.80;;;14.90;99.90;;;;;;5149159;27;20042;-55
2022/10/05 02:25:28;;;;;;;7.45;6.13;;;14.90;99.90;;;;;;5136641;27;20067;-54
2022/10/05 02:28:14;;;;;;;11.85;7.10;;;14.90;99.90;;;;;;5130780;27;20058;-53
2022/10/05 02:31:03;;;;;;;11.85;7.28;;;14.90;99.90;;;;;;5119987;27;20492;-52
2022/10/05 02:33:31;;;;;;;9.93;7.43;;;14.90;99.90;;;;;;5131345;27;20073;-53
2022/10/05 02:36:18;;;;;;;9.57;6.95;;;14.90;99.90;;;;;;5138305;27;20066;-53
2022/10/05 02:39:02;;;;;;;11.02;6.97;;;14.90;99.90;;;;;;5144978;27;20039;-52
2022/10/05 02:42:00;;;;;;;10.93;6.95;;;14.90;99.90;;;;;;5142065;27;20038;-52
2022/10/05 02:44:34;;;;;;;9.30;7.28;;;14.90;99.90;;;;;;5110466;28;20062;-52
2022/10/05 02:47:02;;;;;;;8.20;6.57;;;14.90;99.90;;;;;;5111380;27;20492;-51
2022/10/05 02:49:46;;;;;;;9.98;7.55;;;14.90;99.90;;;;;;5091603;28;20514;-52
2022/10/05 02:52:32;;;;;;;9.05;6.88;;;14.80;99.90;;;;;;5110841;28;20042;-56
2022/10/05 02:55:06;;;;;;;8.65;6.40;;;14.90;99.90;;;;;;5110748;28;20120;-52
2022/10/05 02:57:43;;;;;;;10.50;7.55;;;14.90;99.90;;;;;;5126332;27;20126;-52
2022/10/05 03:00:13;;;;;;;11.82;7.38;;;14.80;99.90;;;;;;5131586;27;20043;-52
2022/10/05 03:02:42;;;;;;;9.95;7.15;;;14.80;99.90;;;;;;5130900;27;20128;-52
2022/10/05 03:05:28;;;;;;;10.68;6.90;;;14.80;99.90;;;;;;5120989;27;20114;-52
2022/10/05 03:08:11;;;;;;;8.38;6.85;;;14.80;99.90;;;;;;5112052;27;20100;-52
2022/10/05 03:11:03;;;;;;;12.35;6.63;;;14.80;99.90;;;;;;5110831;28;20035;-53
2022/10/05 03:13:51;;;;;;;8.63;6.72;;;14.70;99.90;;;;;;5118424;27;20119;-52
2022/10/05 03:16:23;;;;;;;10.00;7.32;;;14.70;99.90;;;;;;5132738;27;20071;-52
2022/10/05 03:19:11;;;;;;;9.00;7.28;;;14.70;99.90;;;;;;5132890;27;20070;-54
2022/10/05 03:21:57;;;;;;;10.07;7.10;;;14.70;99.90;;;;;;5135102;27;20497;-52
2022/10/05 03:24:47;;;;;;;10.37;7.10;;;14.60;99.90;;;;;;5118248;27;20035;-53
2022/10/05 03:27:30;;;;;;;11.45;8.05;;;14.60;99.90;;;;;;5130330;27;20297;-53
2022/10/05 03:30:05;;;;;;;10.02;7.50;;;14.60;99.90;;;;;;5131670;27;20034;-52
2022/10/05 03:32:50;;;;;;;9.95;8.32;;;14.60;99.90;;;;;;5110782;28;20044;-54
2022/10/05 03:35:27;;;;;;;13.05;8.65;;;14.60;99.90;;;;;;5111653;28;20039;-51
2022/10/05 03:38:25;;;;;;;10.40;7.55;;;14.60;99.90;;;;;;5110226;28;20040;-52
2022/10/05 03:41:12;;;;;;;11.38;8.30;;;14.50;99.90;;;;;;5110775;28;20086;-53
2022/10/05 03:43:40;;;;;;;15.07;8.50;;;14.50;99.90;;;;;;5110081;28;20043;-51
2022/10/05 03:46:28;;;;;;;12.65;8.77;;;14.50;99.90;;;;;;5111547;28;20035;-52
2022/10/05 03:49:14;;;;;;;8.45;7.40;;;14.50;99.90;;;;;;5110389;28;20035;-52
2022/10/05 03:51:45;;;;;;;12.48;7.88;;;14.50;99.90;;;;;;5110563;28;20160;-52
2022/10/05 03:54:38;;;;;;;11.07;8.88;;;14.50;99.90;;;;;;5124853;27;20524;-52
2022/10/05 03:57:13;;;;;;;11.48;8.38;;;14.50;99.90;;;;;;5129629;27;20046;-52
2022/10/05 03:59:47;;;;;;;11.98;9.10;;;14.50;99.90;;;;;;5135146;27;20074;-52
2022/10/05 04:02:21;;;;;;;14.13;9.15;;;14.50;99.90;;;;;;5141941;27;20076;-52
2022/10/05 04:04:59;;;;;;;11.38;8.45;;;14.50;99.90;;;;;;5138354;27;20038;-52
2022/10/05 04:07:42;;;;;;;12.55;8.63;;;14.50;99.90;;;;;;5132791;27;20203;-52
2022/10/05 04:10:16;;;;;;;14.00;9.57;;;14.50;99.90;;;;;;5136800;27;20039;-52
2022/10/05 04:12:47;;;;;;;13.00;10.00;;;14.50;99.90;;;;;;5145007;27;20164;-51
2022/10/05 04:15:22;;;;;;;14.40;9.20;;;14.50;99.90;;;;;;5134435;27;20544;-52
2022/10/05 04:17:55;;;;;;;15.23;9.90;;;14.50;99.90;;;;;;5136020;27;20042;-54
2022/10/05 04:20:39;;;;;;;15.50;10.88;;;14.40;99.90;;;;;;5139943;27;20399;-52
2022/10/05 04:23:38;;;;;;;13.02;9.55;;;14.40;99.90;;;;;;5141982;27;20031;-55
2022/10/05 04:26:24;;;;;;;16.17;10.35;;;14.40;99.90;;;;;;5125885;27;20039;-52
2022/10/05 04:28:59;;;;;;;14.65;10.77;;;14.40;99.90;;;;;;5140542;27;20045;-52
2022/10/05 04:31:51;;;;;;;15.00;11.15;;;14.40;99.90;;;;;;5133195;27;20131;-54
2022/10/05 04:34:42;;;;;;;13.77;10.85;;;14.30;99.90;;;;;;5133485;27;20042;-53
2022/10/05 04:37:32;;;;;;;13.27;10.98;;;14.30;99.90;;;;;;5109463;27;20051;-52
2022/10/05 04:40:27;;;;;;;14.25;10.98;;;14.30;99.90;;;;;;5071481;27;20052;-53
2022/10/05 04:43:14;;;;;;;14.85;11.13;;;14.30;99.90;;;;;;5113426;28;20046;-53
2022/10/05 04:46:09;;;;;;;14.48;10.93;;;14.30;99.90;;;;;;5113912;28;20036;-55
2022/10/05 04:48:43;;;;;;;23.65;11.43;;;14.30;99.90;;;;;;5133979;27;20404;-52
2022/10/05 04:51:30;;;;;;;18.52;12.18;;;14.30;99.90;;;;;;5115550;27;20041;-51
2022/10/05 04:54:23;;;;;;;23.63;11.83;;;14.20;99.90;;;;;;5113111;28;20031;-52
2022/10/05 04:56:54;;;;;;;13.75;10.98;;;14.20;99.90;;;;;;5114510;27;20307;-51
2022/10/05 04:59:57;;;;;;;16.52;13.57;;;14.20;99.90;;;;;;5112872;28;20446;-55
2022/10/05 05:02:34;;;;;;;15.80;12.77;;;14.10;99.90;;;;;;5049149;28;20045;-54
2022/10/05 05:05:20;;;;;;;20.20;12.70;;;14.10;99.90;;;;;;5123845;27;20050;-51
2022/10/05 05:08:08;;;;;;;17.25;12.43;;;14.10;99.90;;;;;;5127485;27;20052;-52
2022/10/05 05:11:08;;;;;;;17.65;13.05;;;14.10;99.90;;;;;;5142846;27;20419;-52
2022/10/05 05:13:49;;;;;;;15.07;11.45;;;14.10;99.90;;;;;;5112635;28;20516;-53
2022/10/05 05:16:36;;;;;;;15.43;11.80;;;14.00;99.90;;;;;;5117068;27;20485;-52
2022/10/05 05:19:01;;;;;;;17.55;12.73;;;14.10;99.90;;;;;;5132611;27;20038;-54
2022/10/05 05:21:41;;;;;;;19.67;12.20;;;14.00;99.90;;;;;;5133830;27;20043;-55
2022/10/05 05:24:31;;;;;;;18.17;12.93;;;14.00;99.90;;;;;;5114429;27;20449;-54
2022/10/05 05:27:31;;;;;;;17.85;12.55;;;14.00;99.90;;;;;;5129894;27;20043;-53
2022/10/05 05:30:17;;;;;;;18.90;12.52;;;14.00;99.90;;;;;;5132548;27;20043;-52
2022/10/05 05:33:22;;;;;;;15.23;13.07;;;14.00;99.90;;;;;;5152334;27;20067;-51
2022/10/05 05:36:12;;;;;;;18.10;13.00;;;14.00;99.90;;;;;;5151472;27;20090;-52
2022/10/05 05:38:45;;;;;;;17.23;13.45;;;14.00;99.90;;;;;;5134877;27;20043;-51
2022/10/05 05:41:25;;;;;;;19.17;12.57;;;14.00;99.90;;;;;;5131822;27;20050;-54
2022/10/05 05:44:04;;;;;;;23.15;13.75;;;14.00;99.90;;;;;;5112467;28;20126;-52
2022/10/05 05:46:36;;;;;;;16.13;13.32;;;14.00;99.90;;;;;;5112489;28;20039;-51
2022/10/05 05:49:13;;;;;;;19.40;14.40;;;14.10;99.90;;;;;;5117800;27;20092;-53
2022/10/05 05:51:46;;;;;;;19.25;12.88;;;14.00;99.90;;;;;;5132889;27;20456;-53
2022/10/05 05:54:15;;;;;;;15.27;12.18;;;14.10;99.90;;;;;;5131351;27;20045;-52
2022/10/05 05:57:06;;;;;;;16.95;13.25;;;14.10;99.90;;;;;;5123151;27;20067;-53
2022/10/05 05:59:40;;;;;;;16.55;12.38;;;14.10;99.90;;;;;;5131261;27;20032;-52
2022/10/05 06:02:16;;;;;;;22.25;13.23;;;14.10;99.90;;;;;;5132523;27;20408;-53
2022/10/05 06:05:06;;;;;;;18.52;13.82;;;14.10;99.90;;;;;;5114012;27;20047;-52
2022/10/05 06:07:35;;;;;;;14.50;12.52;;;14.10;99.90;;;;;;5132804;27;20035;-53
2022/10/05 06:10:13;;;;;;;17.25;12.55;;;14.10;99.90;;;;;;5130593;27;20109;-53
2022/10/05 06:12:43;;;;;;;15.57;12.43;;;14.10;99.90;;;;;;5132730;27;20475;-55
2022/10/05 06:15:40;;;;;;;18.67;12.30;;;14.10;99.90;;;;;;5132091;27;20118;-53
2022/10/05 06:18:10;;;;;;;13.38;11.35;;;14.20;99.90;;;;;;5132318;27;20385;-52
2022/10/05 06:20:47;;;;;;;12.63;11.30;;;14.20;99.90;;;;;;5130024;27;20515;-53
2022/10/05 06:23:19;;;;;;;14.32;11.43;;;14.20;99.90;;;;;;5131658;27;20035;-53
2022/10/05 06:26:05;;;;;;;16.67;11.85;;;14.30;99.90;;;;;;5132766;27;20047;-52
2022/10/05 06:28:30;;;;;;;19.02;12.90;;;14.30;99.90;;;;;;5132671;27;20051;-53
2022/10/05 06:31:21;;;;;;;16.67;11.57;;;14.30;99.90;;;;;;5121653;27;20035;-52
2022/10/05 06:33:50;;;;;;;13.18;11.13;;;14.30;99.90;;;;;;5115250;27;20455;-52
2022/10/05 06:36:37;;;;;;;14.13;11.27;;;14.40;99.90;;;;;;5111380;28;20051;-53
2022/10/05 06:39:35;;;;;;;13.32;10.45;;;14.40;99.90;;;;;;5111378;28;20040;-51
2022/10/05 06:42:33;;;;;;;11.07;10.05;;;14.40;99.90;;;;;;5111689;27;20160;-52
2022/10/05 06:45:36;;;;;;;14.07;10.23;;;14.40;99.90;;;;;;5107559;27;20516;-52
2022/10/05 06:48:43;;;;;;;14.98;10.13;;;14.40;99.90;;;;;;5075800;28;20044;-53
2022/10/05 06:51:17;;;;;;;13.80;9.77;;;14.50;99.90;;;;;;4997606;28;20065;-53
2022/10/05 06:53:56;;;;;;;14.75;10.02;;;14.50;99.90;;;;;;4969602;28;20070;-51
2022/10/05 06:56:47;;;;;;;12.63;9.27;;;14.50;99.90;;;;;;4969938;28;20193;-52
2022/10/05 06:59:23;;;;;;;15.27;10.70;;;14.50;99.90;;;;;;4986108;28;20054;-53
2022/10/05 07:02:08;;;;;;;11.23;9.63;;;14.50;99.90;;;;;;4987015;28;20057;-53
2022/10/05 07:04:55;;;;;;;16.67;11.13;;;14.60;99.90;;;;;;4985499;28;20121;-52
2022/10/05 07:07:53;;;;;;;16.88;10.10;;;14.50;99.90;;;;;;4985486;28;20057;-54
2022/10/05 07:10:43;;;;;;;10.35;9.18;;;14.50;99.90;;;;;;4985531;28;20039;-54
2022/10/05 07:13:14;;;;;;;14.52;10.77;;;14.50;99.90;;;;;;4996823;28;20050;-53
2022/10/05 07:15:39;;;;;;;12.63;9.55;;;14.50;99.90;;;;;;5001708;28;20049;-53
2022/10/05 07:18:19;;;;;;;15.93;10.23;;;14.60;99.90;;;;;;5004622;28;20153;-52
2022/10/05 07:21:14;;;;;;;17.02;10.73;;;14.60;99.90;;;;;;4998414;28;20141;-54
2022/10/05 07:24:03;;;;;;;14.07;9.80;;;14.60;99.90;;;;;;4993665;28;20045;-53
2022/10/05 07:26:32;;;;;;;12.85;10.57;;;14.60;99.90;;;;;;5022774;28;20084;-55
2022/10/05 07:29:06;;;;;;;14.43;9.60;;;14.60;99.90;;;;;;5066238;28;20160;-53
2022/10/05 07:31:45;;;;;;;12.50;9.38;;;14.60;99.90;;;;;;5064898;28;20094;-56
2022/10/05 07:34:37;;;;;;;12.68;8.98;;;14.50;99.90;;;;;;5078634;28;20032;-53
2022/10/05 07:40:20;;;;;;;11.35;8.50;;;14.60;99.90;;;;;;5078023;28;20049;-55
2022/10/05 07:42:51;;;;;;;13.85;9.25;;;14.60;99.90;;;;;;5075379;28;20079;-50
2022/10/05 07:45:27;;;;;;;11.15;8.82;;;14.60;99.90;;;;;;5065963;28;20033;-54
2022/10/05 07:47:58;;;;;;;16.80;9.75;;;14.60;99.90;;;;;;5069612;28;20044;-55
2022/10/05 07:50:34;;;;;;;12.93;9.57;;;14.60;99.90;;;;;;5084241;28;20123;-54
2022/10/05 07:53:21;;;;;;;16.13;10.05;;;14.60;99.90;;;;;;5077128;28;20413;-54
2022/10/05 07:55:50;;;;;;;;;;;14.60;99.90;;;;;;5056597;28;20491;-53
2022/10/05 07:58:28;;;;;;;10.48;9.52;;;14.70;99.90;;;;;;5053189;28;20291;-56
2022/10/05 08:01:18;;;;;;;12.13;9.40;;;14.70;99.90;;;;;;5052689;28;20120;-54
2022/10/05 08:04:02;;;;;;;11.32;9.13;;;14.70;99.90;;;;;;5052279;28;20049;-52
2022/10/05 08:06:43;;;;;;;11.45;8.75;;;14.70;99.90;;;;;;5063367;28;20123;-54
2022/10/05 08:09:30;;;;;;;11.30;9.70;;;14.70;99.90;;;;;;5070651;28;20045;-55
2022/10/05 08:12:19;;;;;;;12.07;8.75;;;14.70;99.90;;;;;;5072499;28;20046;-53
2022/10/05 08:14:54;;;;;;;15.18;9.70;;;14.70;99.90;;;;;;5054288;28;20120;-54
2022/10/05 08:17:52;;;;;;;9.23;8.43;;;14.70;99.90;;;;;;5057525;28;20040;-54
2022/10/05 08:20:40;;;;;;;11.30;7.72;;;14.80;99.90;;;;;;5033478;28;20058;-54
2022/10/05 08:23:29;;;;;;;9.20;8.30;;;14.80;99.90;;;;;;5055802;28;20467;-54
2022/10/05 08:26:25;;;;;;;12.60;8.32;;;14.80;99.90;;;;;;5063596;28;20079;-54
2022/10/05 08:29:22;;;;;;;11.95;8.32;;;14.90;99.90;;;;;;5047745;28;20422;-54
2022/10/05 08:31:55;;;;;;;9.05;8.13;;;14.90;99.90;;;;;;5053977;28;20032;-55
2022/10/05 08:34:31;;;;;;;9.50;8.05;;;15.00;99.90;;;;;;5055762;28;20055;-55
2022/10/05 08:37:18;;;;;;;7.45;6.75;;;15.00;99.90;;;;;;5053884;28;20040;-53
2022/10/05 08:40:08;;;;;;;8.10;7.30;;;15.00;99.90;;;;;;5047883;28;20052;-54
2022/10/05 08:43:04;;;;;;;7.80;7.10;;;15.10;99.90;;;;;;5059795;28;20368;-54
2022/10/05 08:45:52;;;;;;;9.40;7.20;;;15.10;99.90;;;;;;5065514;28;20052;-55
2022/10/05 08:48:18;;;;;;;8.05;7.03;;;15.20;99.90;;;;;;5056476;28;20033;-56
2022/10/05 08:51:15;;;;;;;9.17;5.33;;;15.20;99.90;;;;;;5048105;28;20382;-55
2022/10/05 08:54:01;;;;;;;7.32;6.30;;;15.30;99.90;;;;;;5047095;28;20120;-52
2022/10/05 08:56:39;;;;;;;6.88;6.22;;;15.40;99.90;;;;;;5049617;28;20456;-55
2022/10/05 08:59:12;;;;;;;7.63;5.57;;;15.50;99.90;;;;;;5055567;28;20044;-57
2022/10/05 09:02:17;;;;;;;8.10;5.72;;;15.50;99.90;;;;;;5059236;28;20044;-57
2022/10/05 09:04:52;;;;;;;8.80;5.35;;;15.50;99.90;;;;;;5057673;28;20391;-57
2022/10/05 09:07:35;;;;;;;4.97;4.57;;;15.50;99.90;;;;;;5055074;28;20430;-57
2022/10/05 09:10:32;;;;;;;13.15;5.35;;;15.60;99.90;;;;;;5058293;28;20513;-58
2022/10/05 09:13:21;;;;;;;5.60;4.97;;;15.60;99.90;;;;;;5054952;28;20093;-56
2022/10/05 09:16:25;;;;;;;4.85;4.40;;;15.70;99.90;;;;;;5054152;28;20073;-56
2022/10/05 09:19:03;;;;;;;6.38;4.88;;;15.70;99.90;;;;;;5053838;28;20227;-56
2022/10/05 09:21:38;;;;;;;6.72;4.22;;;15.80;99.90;;;;;;5056224;28;20351;-53
2022/10/05 09:24:13;;;;;;;6.93;4.70;;;15.70;99.90;;;;;;5054594;28;20064;-53
2022/10/05 09:27:08;;;;;;;4.60;4.18;;;15.80;99.90;;;;;;5057710;28;20032;-55
2022/10/05 09:30:11;;;;;;;5.82;4.25;;;15.80;99.90;;;;;;5056962;28;20458;-52
2022/10/05 09:32:56;;;;;;;5.45;3.97;;;15.80;99.90;;;;;;5053999;28;20037;-56
2022/10/05 09:35:56;;;;;;;4.50;4.10;;;15.90;99.90;;;;;;5055422;28;20044;-56
2022/10/05 09:39:00;;;;;;;6.97;4.63;;;15.90;99.90;;;;;;5055668;28;20072;-56
2022/10/05 09:41:56;;;;;;;5.65;4.53;;;15.90;99.90;;;;;;5053451;28;20090;-56
2022/10/05 09:44:55;;;;;;;6.10;4.10;;;15.90;99.90;;;;;;5053442;28;20139;-57
2022/10/05 09:47:58;;;;;;;7.45;4.78;;;15.90;99.90;;;;;;5053318;28;20099;-56
2022/10/05 09:51:02;;;;;;;5.63;4.55;;;15.90;99.90;;;;;;5055189;28;20119;-53
2022/10/05 09:53:47;;;;;;;5.57;4.60;;;16.00;99.90;;;;;;5051522;28;20214;-56
2022/10/05 09:56:26;;;;;;;6.22;4.75;;;15.90;99.90;;;;;;5054887;28;20032;-53
2022/10/05 09:59:16;;;;;;;6.20;4.35;;;16.00;99.90;;;;;;5051993;28;20522;-55
2022/10/05 10:02:16;;;;;;;5.82;4.80;;;16.00;99.90;;;;;;5054249;28;20244;-55
2022/10/05 10:05:00;;;;;;;7.15;4.30;;;16.00;99.90;;;;;;5049679;28;20060;-56
2022/10/05 10:07:47;;;;;;;10.63;4.82;;;16.00;99.90;;;;;;5053897;28;20628;-53
2022/10/05 10:10:21;;;;;;;5.88;4.90;;;16.00;99.90;;;;;;5058339;28;20036;-53
2022/10/05 10:13:10;;;;;;;7.25;4.97;;;16.00;99.90;;;;;;5054114;28;20087;-54
2022/10/05 10:16:00;;;;;;;5.53;4.72;;;16.10;99.90;;;;;;5054413;28;20039;-57
2022/10/05 10:18:41;;;;;;;4.47;4.07;;;16.10;99.90;;;;;;5052647;28;20037;-54
2022/10/05 10:21:48;;;;;;;7.05;4.82;;;16.20;99.90;;;;;;5054811;28;20461;-55
2022/10/05 10:24:36;;;;;;;5.10;4.65;;;16.20;99.90;;;;;;5008596;28;20132;-54
2022/10/05 10:27:11;;;;;;;3.80;3.50;;;16.20;99.90;;;;;;5055195;28;20045;-56
2022/10/05 10:29:48;;;;;;;6.75;4.47;;;16.20;99.90;;;;;;5045590;28;20573;-54
2022/10/05 10:32:46;;;;;;;4.25;3.53;;;16.20;99.90;;;;;;5052402;28;20067;-54
2022/10/05 10:35:36;;;;;;;5.97;3.85;;;16.30;99.90;;;;;;5055382;28;20094;-55
2022/10/05 10:38:43;;;;;;;3.78;3.20;;;16.30;99.90;;;;;;5051013;28;20051;-57
2022/10/05 10:41:38;;;;;;;5.82;3.03;;;16.30;99.90;;;;;;5038655;28;20395;-55
2022/10/05 10:44:41;;;;;;;4.40;2.40;;;16.40;99.90;;;;;;5027290;28;20099;-56
2022/10/05 10:47:37;;;;;;;3.58;1.90;;;16.40;99.90;;;;;;5054091;28;20031;-54
2022/10/05 10:50:23;;;;;;;5.57;2.45;;;16.40;99.90;;;;;;5048764;28;20465;-54
2022/10/05 10:53:18;;;;;;;4.28;2.55;;;16.50;99.90;;;;;;5053188;28;20446;-54
2022/10/05 10:56:06;;;;;;;4.70;2.55;;;16.50;99.90;;;;;;5052438;28;20179;-56
2022/10/05 10:59:00;;;;;;;6.10;2.95;;;16.50;99.90;;;;;;5051676;28;20051;-55
2022/10/05 11:01:40;;;;;;;5.57;3.45;;;16.60;99.90;;;;;;5031022;28;20127;-55
2022/10/05 11:04:30;;;;;;;4.20;3.05;;;16.70;99.90;;;;;;5054128;28;20043;-56
2022/10/05 11:07:20;;;;;;;6.03;3.05;;;16.80;99.90;;;;;;5053868;28;20048;-57
2022/10/05 11:09:55;;;;;;;4.65;3.92;;;16.90;99.90;;;;;;5056448;28;20035;-54
2022/10/05 11:12:43;;;;;;;3.47;3.13;;;16.90;99.90;;;;;;5050349;28;20033;-57
2022/10/05 11:15:43;;;;;;;3.95;3.25;;;17.00;99.90;;;;;;5055402;28;20656;-54
2022/10/05 11:18:15;;;;;;;5.13;3.65;;;17.00;99.90;;;;;;5054220;28;20441;-56
2022/10/05 11:20:52;;;;;;;8.10;3.42;;;17.10;99.90;;;;;;5053337;28;20091;-56
2022/10/05 11:23:47;;;;;;;5.72;3.50;;;17.20;99.90;;;;;;5052887;28;20701;-53
2022/10/05 11:26:56;;;;;;;4.63;3.60;;;17.30;99.90;;;;;;5053968;28;20497;-53
2022/10/05 11:29:54;;;;;;;4.82;3.40;;;17.30;99.90;;;;;;5015859;28;20626;-53
2022/10/05 11:32:45;;;;;;;4.65;3.10;;;17.30;99.90;;;;;;5055363;28;20045;-55
2022/10/05 11:35:56;;;;;;;5.82;3.28;;;17.30;99.90;;;;;;5056994;28;20047;-57
2022/10/05 11:38:47;;;;;;;3.25;2.95;;;17.40;99.90;;;;;;5053847;28;20401;-56
2022/10/05 11:41:27;;;;;;;4.35;3.28;;;17.50;99.90;;;;;;5057739;28;20068;-54
2022/10/05 11:44:37;;;;;;;8.43;3.63;;;17.50;99.90;;;;;;5054775;28;20878;-51
2022/10/05 11:47:25;;;;;;;8.23;3.28;;;17.60;99.90;;;;;;5057277;28;20484;-54
2022/10/05 11:50:04;;;;;;;6.30;2.33;;;17.70;99.90;;;;;;5059350;28;20044;-54
2022/10/05 11:52:42;;;;;;;5.38;2.53;;;17.70;99.90;;;;;;5058751;28;20037;-54
2022/10/05 11:55:44;;;;;;;6.78;2.38;;;17.60;99.90;;;;;;5058390;28;20044;-53
2022/10/05 11:58:39;;;;;;;2.40;2.20;;;17.60;99.90;;;;;;5059938;28;20040;-53
2022/10/05 12:01:33;;;;;;;3.72;2.72;;;17.60;99.90;;;;;;5055908;28;20091;-56
2022/10/05 12:04:33;;;;;;;5.78;2.25;;;17.60;99.90;;;;;;5055692;28;20080;-56
2022/10/05 12:07:07;;;;;;;2.88;2.17;;;17.60;99.90;;;;;;5057801;28;20076;-55
2022/10/05 12:10:12;;;;;;;5.13;2.72;;;17.60;99.90;;;;;;5054175;28;20029;-52
2022/10/05 12:12:30;;;;;;;4.35;2.65;;;17.50;99.90;;;;;;5056353;28;20055;-54
2022/10/05 12:15:01;;;;;;;4.38;2.30;;;17.60;99.90;;;;;;5054576;28;20037;-54
2022/10/05 12:17:43;;;;;;;2.75;2.30;;;17.50;99.90;;;;;;5056415;28;20487;-54
2022/10/05 12:20:17;;;;;;;6.28;2.50;;;17.50;99.90;;;;;;5056383;28;20090;-52
2022/10/05 12:23:06;;;;;;;2.97;2.53;;;17.50;99.90;;;;;;5051648;28;20493;-52
2022/10/05 12:25:38;;;;;;;3.75;2.97;;;17.50;99.90;;;;;;5056446;28;20440;-54
2022/10/05 12:28:10;;;;;;;3.85;2.88;;;17.50;99.90;;;;;;5055669;28;20520;-57
2022/10/05 12:31:03;;;;;;;5.63;2.47;;;17.40;99.90;;;;;;5058669;28;20383;-56
2022/10/05 12:33:44;;;;;;;4.38;2.90;;;17.40;99.90;;;;;;5055326;28;20079;-56
2022/10/05 12:36:16;;;;;;;3.35;2.42;;;17.40;99.90;;;;;;5047746;28;20064;-54
2022/10/05 12:38:56;;;;;;;5.38;2.38;;;17.40;99.90;;;;;;5058649;28;20040;-50
2022/10/05 12:41:32;;;;;;;5.57;2.40;;;17.40;99.90;;;;;;5062208;28;20032;-53
2022/10/05 12:44:35;;;;;;;4.18;2.30;;;17.40;99.90;;;;;;5050416;28;20170;-56
2022/10/05 12:47:19;;;;;;;5.28;1.98;;;17.40;99.90;;;;;;5051716;28;20055;-52
2022/10/05 12:50:00;;;;;;;5.75;2.97;;;17.40;99.90;;;;;;5055335;28;20401;-55
2022/10/05 12:53:17;;;;;;;7.32;2.78;;;17.40;99.90;;;;;;5054828;28;20036;-55
2022/10/05 12:55:57;;;;;;;7.75;2.92;;;17.40;99.90;;;;;;4976400;28;20050;-55
2022/10/05 12:59:01;;;;;;;2.88;2.58;;;17.40;99.90;;;;;;4977257;28;20038;-53
2022/10/05 13:01:40;;;;;;;4.28;2.63;;;17.50;99.90;;;;;;5047875;28;20187;-55
2022/10/05 13:04:27;;;;;;;3.30;2.13;;;17.60;99.90;;;;;;5054937;28;20051;-54
2022/10/05 13:07:01;;;;;;;6.85;3.08;;;17.60;99.90;;;;;;5055133;28;20112;-52
2022/10/05 13:09:48;;;;;;;3.05;1.95;;;17.70;99.90;;;;;;5054735;28;20056;-54
2022/10/05 13:12:34;;;;;;;4.55;1.92;;;17.80;99.90;;;;;;5055905;28;20041;-56
2022/10/05 13:15:03;;;;;;;3.47;2.17;;;17.80;99.90;;;;;;5056030;28;20120;-54
2022/10/05 13:17:43;;;;;;;6.10;2.20;;;17.80;99.90;;;;;;5056652;28;20516;-54
2022/10/05 13:20:35;;;;;;;4.97;1.73;;;17.80;99.90;;;;;;5052734;28;20056;-56
2022/10/05 13:23:23;;;;;;;2.58;1.85;;;17.90;99.90;;;;;;5056716;28;20479;-57
2022/10/05 13:26:19;;;;;;;7.95;1.58;;;18.00;99.90;;;;;;5056657;28;20044;-57
2022/10/05 13:29:03;;;;;;;2.70;1.42;;;18.10;99.90;;;;;;5053168;28;20080;-54
2022/10/05 13:31:36;;;;;;;8.32;2.00;;;18.10;99.90;;;;;;5056973;28;20037;-55
2022/10/05 13:34:19;;;;;;;1.75;1.48;;;18.10;99.90;;;;;;5050124;28;20033;-55
2022/10/05 13:36:48;;;;;;;8.48;1.88;;;18.00;99.90;;;;;;5054676;28;20041;-55
2022/10/05 13:39:39;;;;;;;3.33;1.65;;;18.00;99.90;;;;;;5054107;28;20036;-56
2022/10/05 13:42:19;;;;;;;2.50;1.42;;;18.10;99.90;;;;;;5054673;28;20064;-56
2022/10/05 13:45:00;;;;;;;3.63;1.70;;;18.10;99.90;;;;;;5054933;28;20041;-53
2022/10/05 13:47:37;;;;;;;6.15;1.85;;;18.10;99.90;;;;;;5056529;28;20513;-55
2022/10/05 13:50:18;;;;;;;2.58;1.27;;;18.20;99.90;;;;;;5050623;28;20506;-52
2022/10/05 13:53:05;;;;;;;3.47;1.40;;;18.20;99.90;;;;;;5053342;28;20375;-52
2022/10/05 13:55:44;;;;;;;2.37;1.33;;;18.20;99.90;;;;;;5053645;28;20036;-52
2022/10/05 13:58:25;;;;;;;2.80;1.35;;;18.30;99.90;;;;;;5055468;28;20041;-53
2022/10/05 14:00:58;;;;;;;2.17;1.30;;;18.30;99.90;;;;;;5054162;28;20040;-52
2022/10/05 14:03:31;;;;;;;3.25;1.50;;;18.40;99.90;;;;;;5054063;28;20051;-53
2022/10/05 14:06:00;;;;;;;3.72;1.75;;;18.40;99.90;;;;;;5053976;28;20051;-52
2022/10/05 14:08:33;;;;;;;4.05;1.45;;;18.50;99.90;;;;;;5054368;28;20041;-53